Wetterdaten: Woche 04.11.13 - 10.11.13 (KW45)
Datum Zeit Temp. Aussen +5cm Feuchte Auss Luftdruck Regen Sonnenschein Regendauer UV Solar Windben
04.11.2013 00:00 7,8 C 6,1 C 87 % 998,8 hPa 0,0 l/m 0,00 h 0,00 h 0,0 UV-I 0 W/m 12,2 km/h (3 Bft)
04.11.2013 01:00 8,1 C 6,5 C 87 % 996,9 hPa 0,2 l/m 0,00 h 0,37 h 0,0 UV-I 0 W/m 16,2 km/h (3 Bft)
04.11.2013 02:00 7,7 C 6,0 C 92 % 994,2 hPa 0,8 l/m 0,00 h 1,00 h 0,0 UV-I 0 W/m 17,2 km/h (3 Bft)
04.11.2013 03:00 7,6 C 6,1 C 94 % 991,0 hPa 1,8 l/m 0,00 h 1,00 h 0,0 UV-I 0 W/m 22,7 km/h (4 Bft)
04.11.2013 04:00 7,9 C 6,6 C 96 % 988,2 hPa 0,8 l/m 0,00 h 0,27 h 0,0 UV-I 0 W/m 23,0 km/h (4 Bft)
04.11.2013 05:00 8,9 C 7,3 C 96 % 987,0 hPa 0,0 l/m 0,00 h 0,10 h 0,0 UV-I 0 W/m 18,3 km/h (3 Bft)
04.11.2013 06:00 10,3 C 8,2 C 93 % 985,8 hPa 0,2 l/m 0,00 h 0,20 h 0,0 UV-I 0 W/m 17,1 km/h (3 Bft)
04.11.2013 07:00 11,2 C 9,0 C 92 % 985,1 hPa 0,0 l/m 0,00 h 0,13 h 0,0 UV-I 5 W/m 21,1 km/h (4 Bft)
04.11.2013 08:00 11,9 C 9,4 C 91 % 984,8 hPa 0,2 l/m 0,00 h 0,47 h 0,0 UV-I 22 W/m 24,2 km/h (4 Bft)
04.11.2013 09:00 12,4 C 10,4 C 89 % 984,6 hPa 0,2 l/m 0,00 h 0,23 h 0,0 UV-I 52 W/m 22,7 km/h (4 Bft)
04.11.2013 10:00 13,1 C 11,6 C 86 % 984,2 hPa 0,0 l/m 0,03 h 0,00 h 0,0 UV-I 137 W/m 23,1 km/h (4 Bft)
04.11.2013 11:00 14,1 C 12,7 C 83 % 983,6 hPa 0,0 l/m 0,47 h 0,00 h 0,0 UV-I 251 W/m 25,6 km/h (4 Bft)
04.11.2013 12:00 14,1 C 12,5 C 81 % 983,1 hPa 0,0 l/m 0,00 h 0,27 h 0,0 UV-I 94 W/m 23,9 km/h (4 Bft)
04.11.2013 13:00 12,7 C 11,0 C 91 % 983,1 hPa 0,2 l/m 0,00 h 0,33 h 0,0 UV-I 114 W/m 18,4 km/h (3 Bft)
04.11.2013 14:00 11,5 C 9,4 C 90 % 983,6 hPa 1,0 l/m 0,00 h 1,00 h 0,0 UV-I 37 W/m 19,0 km/h (3 Bft)
04.11.2013 15:00 8,1 C 6,9 C 95 % 985,8 hPa 0,8 l/m 0,00 h 0,93 h 0,0 UV-I 26 W/m 16,1 km/h (3 Bft)
04.11.2013 16:00 7,6 C 6,5 C 96 % 988,1 hPa 0,0 l/m 0,00 h 0,93 h 0,0 UV-I 10 W/m 9,1 km/h (2 Bft)
04.11.2013 17:00 7,6 C 6,3 C 96 % 990,2 hPa 0,2 l/m 0,00 h 0,20 h 0,0 UV-I 0 W/m 4,3 km/h (1 Bft)
04.11.2013 18:00 6,9 C 5,3 C 95 % 992,0 hPa 0,0 l/m 0,00 h 0,03 h 0,0 UV-I 0 W/m 2,8 km/h (1 Bft)
04.11.2013 19:00 6,2 C 4,8 C 95 % 993,3 hPa 0,0 l/m 0,00 h 0,03 h 0,0 UV-I 0 W/m 3,1 km/h (1 Bft)
04.11.2013 20:00 6,0 C 4,8 C 96 % 994,1 hPa 0,0 l/m 0,00 h 0,03 h 0,0 UV-I 0 W/m 6,2 km/h (2 Bft)
04.11.2013 21:00 6,5 C 5,0 C 95 % 994,8 hPa 0,0 l/m 0,00 h 0,00 h 0,0 UV-I 0 W/m 8,2 km/h (2 Bft)
04.11.2013 22:00 6,7 C 5,5 C 92 % 995,4 hPa 0,0 l/m 0,00 h 0,20 h 0,0 UV-I 0 W/m 12,6 km/h (3 Bft)
04.11.2013 23:00 6,5 C 5,0 C 93 % 995,9 hPa 0,2 l/m 0,00 h 0,67 h 0,0 UV-I 0 W/m 12,0 km/h (2 Bft)
05.11.2013 00:00 6,5 C 5,0 C 94 % 996,6 hPa 0,2 l/m 0,00 h 0,67 h 0,0 UV-I 0 W/m 9,1 km/h (2 Bft)
05.11.2013 01:00 6,6 C 5,0 C 94 % 997,2 hPa 0,0 l/m 0,00 h 0,13 h 0,0 UV-I 0 W/m 10,3 km/h (2 Bft)
05.11.2013 02:00 6,5 C 5,0 C 94 % 997,9 hPa 0,0 l/m 0,00 h 0,17 h 0,0 UV-I 0 W/m 10,4 km/h (2 Bft)
05.11.2013 03:00 6,4 C 5,0 C 94 % 998,1 hPa 0,0 l/m 0,00 h 0,20 h 0,0 UV-I 0 W/m 5,4 km/h (1 Bft)
05.11.2013 04:00 5,9 C 4,4 C 94 % 998,4 hPa 0,0 l/m 0,00 h 0,00 h 0,0 UV-I 0 W/m 6,0 km/h (2 Bft)
05.11.2013 05:00 5,7 C 4,3 C 94 % 998,6 hPa 0,0 l/m 0,00 h 0,00 h 0,0 UV-I 0 W/m 5,8 km/h (2 Bft)
05.11.2013 06:00 4,9 C 3,6 C 94 % 998,9 hPa 0,0 l/m 0,00 h 0,00 h 0,0 UV-I 0 W/m 4,3 km/h (1 Bft)
05.11.2013 07:00 4,3 C 3,2 C 94 % 998,9 hPa 0,0 l/m 0,03 h 0,00 h 0,0 UV-I 14 W/m 4,1 km/h (1 Bft)
05.11.2013 08:00 5,0 C 4,1 C 94 % 998,8 hPa 0,0 l/m 0,20 h 0,00 h 0,0 UV-I 55 W/m 5,0 km/h (1 Bft)
05.11.2013 09:00 6,2 C 5,5 C 90 % 998,7 hPa 0,0 l/m 0,33 h 0,00 h 0,0 UV-I 125 W/m 8,2 km/h (2 Bft)
05.11.2013 10:00 7,5 C 6,9 C 87 % 998,0 hPa 0,0 l/m 0,00 h 0,00 h 0,0 UV-I 124 W/m 9,5 km/h (2 Bft)
05.11.2013 11:00 8,7 C 7,9 C 82 % 997,1 hPa 0,0 l/m 0,07 h 0,00 h 0,0 UV-I 146 W/m 13,6 km/h (3 Bft)
05.11.2013 12:00 8,8 C 7,8 C 78 % 996,1 hPa 0,0 l/m 0,00 h 0,00 h 0,0 UV-I 143 W/m 19,3 km/h (3 Bft)
05.11.2013 13:00 8,4 C 7,1 C 79 % 995,4 hPa 0,2 l/m 0,00 h 0,33 h 0,0 UV-I 69 W/m 18,8 km/h (3 Bft)
05.11.2013 14:00 6,3 C 4,6 C 89 % 994,5 hPa 1,6 l/m 0,00 h 1,00 h 0,0 UV-I 40 W/m 19,2 km/h (3 Bft)
05.11.2013 15:00 5,3 C 4,1 C 94 % 993,0 hPa 1,0 l/m 0,00 h 1,00 h 0,0 UV-I 18 W/m 17,2 km/h (3 Bft)
05.11.2013 16:00 5,6 C 4,4 C 96 % 992,1 hPa 1,0 l/m 0,00 h 1,00 h 0,0 UV-I 8 W/m 14,7 km/h (3 Bft)
05.11.2013 17:00 5,7 C 4,4 C 96 % 991,8 hPa 1,4 l/m 0,00 h 1,00 h 0,0 UV-I 0 W/m 9,3 km/h (2 Bft)
05.11.2013 18:00 5,7 C 4,6 C 97 % 991,5 hPa 0,4 l/m 0,00 h 0,83 h 0,0 UV-I 0 W/m 7,2 km/h (2 Bft)
05.11.2013 19:00 5,9 C 5,0 C 97 % 991,4 hPa 0,4 l/m 0,00 h 0,70 h 0,0 UV-I 0 W/m 5,6 km/h (1 Bft)
05.11.2013 20:00 6,5 C 5,6 C 98 % 991,5 hPa 0,0 l/m 0,00 h 0,10 h 0,0 UV-I 0 W/m 2,7 km/h (1 Bft)
05.11.2013 21:00 7,9 C 6,7 C 98 % 991,9 hPa 0,0 l/m 0,00 h 0,00 h 0,0 UV-I 0 W/m 15,0 km/h (3 Bft)
05.11.2013 22:00 8,5 C 7,0 C 98 % 993,1 hPa 0,0 l/m 0,00 h 0,30 h 0,0 UV-I 0 W/m 14,8 km/h (3 Bft)
05.11.2013 23:00 8,4 C 6,6 C 96 % 994,1 hPa 0,0 l/m 0,00 h 0,00 h 0,0 UV-I 0 W/m 13,7 km/h (3 Bft)
06.11.2013 00:00 8,0 C 6,0 C 94 % 995,1 hPa 0,0 l/m 0,00 h 0,03 h 0,0 UV-I 0 W/m 15,9 km/h (3 Bft)
06.11.2013 01:00 7,8 C 5,9 C 92 % 995,8 hPa 0,2 l/m 0,00 h 0,20 h 0,0 UV-I 0 W/m 15,9 km/h (3 Bft)
06.11.2013 02:00 7,6 C 5,9 C 93 % 996,8 hPa 0,2 l/m 0,00 h 0,53 h 0,0 UV-I 0 W/m 13,6 km/h (3 Bft)
06.11.2013 03:00 7,5 C 5,9 C 95 % 997,2 hPa 0,0 l/m 0,00 h 0,00 h 0,0 UV-I 0 W/m 13,2 km/h (3 Bft)
06.11.2013 04:00 7,6 C 5,7 C 95 % 998,2 hPa 0,0 l/m 0,00 h 0,00 h 0,0 UV-I 0 W/m 11,4 km/h (2 Bft)
06.11.2013 05:00 7,6 C 5,8 C 94 % 999,1 hPa 0,0 l/m 0,00 h 0,00 h 0,0 UV-I 0 W/m 9,8 km/h (2 Bft)
06.11.2013 06:00 7,6 C 5,9 C 93 % 999,8 hPa 0,0 l/m 0,00 h 0,00 h 0,0 UV-I 0 W/m 6,5 km/h (2 Bft)
06.11.2013 07:00 7,6 C 6,1 C 93 % 1000,1 hPa 0,0 l/m 0,00 h 0,00 h 0,0 UV-I 6 W/m 5,8 km/h (2 Bft)
06.11.2013 08:00 8,0 C 6,7 C 92 % 1000,6 hPa 0,0 l/m 0,00 h 0,00 h 0,0 UV-I 22 W/m 7,4 km/h (2 Bft)
06.11.2013 09:00 9,0 C 7,8 C 91 % 1001,0 hPa 0,0 l/m 0,00 h 0,00 h 0,0 UV-I 64 W/m 12,5 km/h (3 Bft)
06.11.2013 10:00 10,0 C 9,1 C 89 % 1001,6 hPa 0,0 l/m 0,10 h 0,00 h 0,0 UV-I 139 W/m 13,0 km/h (3 Bft)
06.11.2013 11:00 10,8 C 9,9 C 87 % 1001,8 hPa 0,0 l/m 0,00 h 0,00 h 0,0 UV-I 149 W/m 10,7 km/h (2 Bft)
06.11.2013 12:00 11,1 C 10,0 C 85 % 1001,9 hPa 0,0 l/m 0,00 h 0,00 h 0,0 UV-I 91 W/m 13,0 km/h (3 Bft)
06.11.2013 13:00 10,8 C 9,0 C 88 % 1002,1 hPa 0,0 l/m 0,00 h 0,87 h 0,0 UV-I 51 W/m 9,3 km/h (2 Bft)
06.11.2013 14:00 10,5 C 8,9 C 93 % 1002,1 hPa 0,2 l/m 0,00 h 0,73 h 0,0 UV-I 47 W/m 6,8 km/h (2 Bft)
06.11.2013 15:00 10,4 C 8,9 C 96 % 1002,2 hPa 0,0 l/m 0,00 h 0,33 h 0,0 UV-I 20 W/m 2,5 km/h (1 Bft)
06.11.2013 16:00 10,4 C 8,9 C 97 % 1002,1 hPa 0,4 l/m 0,00 h 0,67 h 0,0 UV-I 10 W/m 0,0 km/h (0 Bft)
06.11.2013 17:00 10,4 C 9,0 C 98 % 1002,2 hPa 0,4 l/m 0,00 h 0,93 h 0,0 UV-I 0 W/m 0,7 km/h (0 Bft)
06.11.2013 18:00 10,4 C 9,4 C 98 % 1002,2 hPa 0,6 l/m 0,00 h 0,90 h 0,0 UV-I 0 W/m 2,9 km/h (1 Bft)
06.11.2013 19:00 10,7 C 9,4 C 99 % 1002,1 hPa 1,0 l/m 0,00 h 0,73 h 0,0 UV-I 0 W/m 1,9 km/h (1 Bft)
06.11.2013 20:00 12,1 C 11,0 C 99 % 1002,0 hPa 0,0 l/m 0,00 h 0,07 h 0,0 UV-I 0 W/m 12,2 km/h (2 Bft)
06.11.2013 21:00 12,9 C 11,3 C 99 % 1002,1 hPa 0,0 l/m 0,00 h 0,03 h 0,0 UV-I 0 W/m 18,9 km/h (3 Bft)
06.11.2013 22:00 13,2 C 11,1 C 98 % 1002,0 hPa 0,0 l/m 0,00 h 0,00 h 0,0 UV-I 0 W/m 19,8 km/h (4 Bft)
06.11.2013 23:00 13,7 C 11,3 C 92 % 1001,9 hPa 0,0 l/m 0,00 h 0,00 h 0,0 UV-I 0 W/m 22,2 km/h (4 Bft)
07.11.2013 00:00 14,1 C 11,8 C 88 % 1002,3 hPa 0,0 l/m 0,00 h 0,00 h 0,0 UV-I 0 W/m 20,0 km/h (4 Bft)
07.11.2013 01:00 14,5 C 12,8 C 87 % 1002,4 hPa 0,0 l/m 0,00 h 0,00 h 0,0 UV-I 0 W/m 24,3 km/h (4 Bft)
07.11.2013 02:00 14,5 C 12,8 C 87 % 1002,3 hPa 0,0 l/m 0,00 h 0,00 h 0,0 UV-I 0 W/m 23,0 km/h (4 Bft)
07.11.2013 03:00 14,7 C 12,8 C 86 % 1002,4 hPa 0,0 l/m 0,00 h 0,00 h 0,0 UV-I 0 W/m 23,6 km/h (4 Bft)
07.11.2013 04:00 14,6 C 12,8 C 88 % 1002,4 hPa 0,0 l/m 0,00 h 0,00 h 0,0 UV-I 0 W/m 23,0 km/h (4 Bft)
07.11.2013 05:00 14,4 C 12,7 C 90 % 1002,7 hPa 0,0 l/m 0,00 h 0,00 h 0,0 UV-I 0 W/m 18,4 km/h (3 Bft)
07.11.2013 06:00 13,9 C 12,2 C 93 % 1002,9 hPa 0,0 l/m 0,00 h 0,07 h 0,0 UV-I 0 W/m 20,5 km/h (4 Bft)
07.11.2013 07:00 13,9 C 12,3 C 94 % 1003,6 hPa 0,0 l/m 0,00 h 0,10 h 0,0 UV-I 0 W/m 20,3 km/h (4 Bft)
07.11.2013 08:00 13,8 C 12,2 C 94 % 1004,4 hPa 0,0 l/m 0,00 h 0,27 h 0,0 UV-I 23 W/m 15,6 km/h (3 Bft)
07.11.2013 09:00 13,8 C 12,2 C 95 % 1005,0 hPa 0,2 l/m 0,00 h 0,83 h 0,0 UV-I 32 W/m 18,0 km/h (3 Bft)
07.11.2013 10:00 13,1 C 11,3 C 96 % 1006,0 hPa 1,4 l/m 0,00 h 1,00 h 0,0 UV-I 36 W/m 8,6 km/h (2 Bft)
07.11.2013 11:00 12,2 C 10,8 C 96 % 1006,7 hPa 1,0 l/m 0,00 h 1,00 h 0,0 UV-I 51 W/m 3,0 km/h (1 Bft)
07.11.2013 12:00 11,8 C 10,7 C 97 % 1007,1 hPa 1,0 l/m 0,00 h 0,97 h 0,0 UV-I 69 W/m 2,0 km/h (1 Bft)
07.11.2013 13:00 11,8 C 11,0 C 98 % 1007,2 hPa 1,0 l/m 0,00 h 1,00 h 0,0 UV-I 61 W/m 1,0 km/h (0 Bft)
07.11.2013 14:00 11,5 C 10,5 C 98 % 1007,5 hPa 0,4 l/m 0,00 h 0,87 h 0,0 UV-I 48 W/m 0,5 km/h (0 Bft)
07.11.2013 15:00 11,0 C 10,0 C 98 % 1007,6 hPa 0,0 l/m 0,00 h 0,53 h 0,0 UV-I 30 W/m 0,2 km/h (0 Bft)
07.11.2013 16:00 10,9 C 10,0 C 98 % 1008,0 hPa 0,4 l/m 0,00 h 0,80 h 0,0 UV-I 8 W/m 0,0 km/h (0 Bft)
07.11.2013 17:00 10,9 C 10,0 C 98 % 1008,2 hPa 0,4 l/m 0,00 h 1,00 h 0,0 UV-I 0 W/m 0,0 km/h (0 Bft)
07.11.2013 18:00 10,8 C 9,6 C 98 % 1008,2 hPa 0,4 l/m 0,00 h 0,90 h 0,0 UV-I 0 W/m 0,0 km/h (0 Bft)
07.11.2013 19:00 10,7 C 9,4 C 98 % 1008,5 hPa 1,2 l/m 0,00 h 1,00 h 0,0 UV-I 0 W/m 0,0 km/h (0 Bft)
07.11.2013 20:00 10,6 C 9,4 C 98 % 1008,2 hPa 0,8 l/m 0,00 h 1,00 h 0,0 UV-I 0 W/m 0,0 km/h (0 Bft)
07.11.2013 21:00 10,4 C 9,4 C 98 % 1008,0 hPa 0,4 l/m 0,00 h 0,97 h 0,0 UV-I 0 W/m 0,0 km/h (0 Bft)
07.11.2013 22:00 10,3 C 9,3 C 98 % 1008,3 hPa 1,2 l/m 0,00 h 1,00 h 0,0 UV-I 0 W/m 0,0 km/h (0 Bft)
07.11.2013 23:00 10,0 C 8,9 C 98 % 1007,9 hPa 0,6 l/m 0,00 h 1,00 h 0,0 UV-I 0 W/m 0,0 km/h (0 Bft)
08.11.2013 00:00 9,9 C 8,9 C 98 % 1008,1 hPa 0,8 l/m 0,00 h 0,97 h 0,0 UV-I 0 W/m 0,0 km/h (0 Bft)
08.11.2013 01:00 9,9 C 8,9 C 98 % 1007,9 hPa 0,4 l/m 0,00 h 0,83 h 0,0 UV-I 0 W/m 0,8 km/h (0 Bft)
08.11.2013 02:00 10,0 C 8,9 C 99 % 1008,3 hPa 0,4 l/m 0,00 h 0,90 h 0,0 UV-I 0 W/m 0,2 km/h (0 Bft)
08.11.2013 03:00 9,9 C 8,9 C 99 % 1008,4 hPa 0,2 l/m 0,00 h 0,30 h 0,0 UV-I 0 W/m 0,1 km/h (0 Bft)
08.11.2013 04:00 9,6 C 8,5 C 99 % 1008,7 hPa 0,0 l/m 0,00 h 0,00 h 0,0 UV-I 0 W/m 0,9 km/h (0 Bft)
08.11.2013 05:00 9,1 C 8,2 C 99 % 1008,9 hPa 0,0 l/m 0,00 h 0,10 h 0,0 UV-I 0 W/m 0,1 km/h (0 Bft)
08.11.2013 06:00 9,1 C 8,1 C 99 % 1008,9 hPa 0,0 l/m 0,00 h 0,03 h 0,0 UV-I 0 W/m 0,0 km/h (0 Bft)
08.11.2013 07:00 8,9 C 7,8 C 99 % 1009,4 hPa 0,0 l/m 0,00 h 0,00 h 0,0 UV-I 9 W/m 0,5 km/h (0 Bft)
08.11.2013 08:00 8,9 C 8,1 C 99 % 1010,1 hPa 0,0 l/m 0,00 h 0,00 h 0,0 UV-I 39 W/m 0,0 km/h (0 Bft)
08.11.2013 09:00 9,4 C 8,8 C 99 % 1010,3 hPa 0,0 l/m 0,10 h 0,00 h 0,0 UV-I 102 W/m 0,2 km/h (0 Bft)
08.11.2013 10:00 10,1 C 9,5 C 99 % 1010,1 hPa 0,0 l/m 0,00 h 0,00 h 0,0 UV-I 115 W/m 1,1 km/h (1 Bft)
08.11.2013 11:00 10,6 C 10,0 C 96 % 1009,4 hPa 0,0 l/m 0,00 h 0,00 h 0,0 UV-I 152 W/m 3,6 km/h (1 Bft)
08.11.2013 12:00 11,2 C 10,5 C 93 % 1008,8 hPa 0,0 l/m 0,27 h 0,00 h 0,0 UV-I 182 W/m 9,0 km/h (2 Bft)
08.11.2013 13:00 11,2 C 10,4 C 93 % 1008,1 hPa 0,0 l/m 0,00 h 0,00 h 0,0 UV-I 86 W/m 5,5 km/h (1 Bft)
08.11.2013 14:00 10,9 C 10,1 C 95 % 1007,5 hPa 0,0 l/m 0,00 h 0,00 h 0,0 UV-I 34 W/m 5,1 km/h (1 Bft)
08.11.2013 15:00 10,9 C 10,0 C 96 % 1006,6 hPa 0,0 l/m 0,00 h 0,00 h 0,0 UV-I 28 W/m 1,3 km/h (1 Bft)
08.11.2013 16:00 11,1 C 10,0 C 96 % 1005,6 hPa 0,0 l/m 0,00 h 0,33 h 0,0 UV-I 10 W/m 4,4 km/h (1 Bft)
08.11.2013 17:00 11,2 C 9,7 C 97 % 1004,5 hPa 0,0 l/m 0,00 h 0,00 h 0,0 UV-I 0 W/m 9,9 km/h (2 Bft)
08.11.2013 18:00 11,1 C 9,4 C 96 % 1003,4 hPa 0,0 l/m 0,00 h 0,00 h 0,0 UV-I 0 W/m 10,6 km/h (2 Bft)
08.11.2013 19:00 10,8 C 9,2 C 95 % 1002,4 hPa 0,0 l/m 0,00 h 0,00 h 0,0 UV-I 0 W/m 9,2 km/h (2 Bft)
08.11.2013 20:00 10,8 C 9,4 C 96 % 1001,9 hPa 1,0 l/m 0,00 h 0,63 h 0,0 UV-I 0 W/m 11,2 km/h (2 Bft)
08.11.2013 21:00 10,5 C 9,0 C 97 % 1002,1 hPa 1,6 l/m 0,00 h 0,87 h 0,0 UV-I 0 W/m 1,2 km/h (1 Bft)
08.11.2013 22:00 10,1 C 8,7 C 97 % 1002,1 hPa 0,2 l/m 0,00 h 0,77 h 0,0 UV-I 0 W/m 7,7 km/h (2 Bft)
08.11.2013 23:00 9,6 C 8,3 C 97 % 1002,5 hPa 0,0 l/m 0,00 h 0,30 h 0,0 UV-I 0 W/m 10,6 km/h (2 Bft)
09.11.2013 00:00 9,9 C 8,5 C 98 % 1003,2 hPa 0,0 l/m 0,00 h 0,00 h 0,0 UV-I 0 W/m 13,5 km/h (3 Bft)
09.11.2013 01:00 9,8 C 8,0 C 95 % 1003,8 hPa 0,2 l/m 0,00 h 0,30 h 0,0 UV-I 0 W/m 17,3 km/h (3 Bft)
09.11.2013 02:00 9,4 C 7,5 C 91 % 1004,6 hPa 0,0 l/m 0,00 h 0,00 h 0,0 UV-I 0 W/m 20,0 km/h (4 Bft)
09.11.2013 03:00 9,4 C 7,8 C 90 % 1006,0 hPa 0,0 l/m 0,00 h 0,07 h 0,0 UV-I 0 W/m 20,3 km/h (4 Bft)
09.11.2013 04:00 9,0 C 7,4 C 88 % 1007,2 hPa 0,0 l/m 0,00 h 0,03 h 0,0 UV-I 0 W/m 20,9 km/h (4 Bft)
09.11.2013 05:00 8,4 C 7,1 C 87 % 1008,1 hPa 0,0 l/m 0,00 h 0,00 h 0,0 UV-I 0 W/m 14,7 km/h (3 Bft)
09.11.2013 06:00 8,0 C 6,5 C 89 % 1008,8 hPa 0,0 l/m 0,00 h 0,00 h 0,0 UV-I 0 W/m 14,5 km/h (3 Bft)
09.11.2013 07:00 7,6 C 6,2 C 90 % 1009,4 hPa 0,0 l/m 0,00 h 0,00 h 0,0 UV-I 8 W/m 13,5 km/h (3 Bft)
09.11.2013 08:00 7,6 C 6,1 C 89 % 1010,1 hPa 0,0 l/m 0,00 h 0,00 h 0,0 UV-I 23 W/m 16,2 km/h (3 Bft)
09.11.2013 09:00 7,9 C 6,8 C 88 % 1010,5 hPa 0,0 l/m 0,90 h 0,00 h 0,0 UV-I 149 W/m 18,6 km/h (3 Bft)
09.11.2013 10:00 9,0 C 7,6 C 85 % 1010,8 hPa 0,0 l/m 1,00 h 0,00 h 0,0 UV-I 262 W/m 15,9 km/h (3 Bft)
09.11.2013 11:00 9,8 C 8,7 C 81 % 1010,8 hPa 0,0 l/m 0,73 h 0,00 h 0,0 UV-I 286 W/m 18,0 km/h (3 Bft)
09.11.2013 12:00 10,3 C 9,3 C 77 % 1010,4 hPa 0,0 l/m 0,63 h 0,00 h 0,0 UV-I 285 W/m 19,0 km/h (3 Bft)
09.11.2013 13:00 10,3 C 9,3 C 77 % 1009,8 hPa 0,2 l/m 0,27 h 0,00 h 0,0 UV-I 196 W/m 16,6 km/h (3 Bft)
09.11.2013 14:00 10,5 C 9,2 C 75 % 1009,3 hPa 0,0 l/m 0,73 h 0,00 h 0,0 UV-I 216 W/m 20,8 km/h (4 Bft)
09.11.2013 15:00 10,1 C 8,7 C 75 % 1008,7 hPa 0,0 l/m 0,30 h 0,00 h 0,0 UV-I 82 W/m 14,2 km/h (3 Bft)
09.11.2013 16:00 9,5 C 8,0 C 76 % 1007,8 hPa 0,0 l/m 0,00 h 0,00 h 0,0 UV-I 13 W/m 7,6 km/h (2 Bft)
09.11.2013 17:00 9,0 C 7,6 C 78 % 1006,7 hPa 0,0 l/m 0,00 h 0,00 h 0,0 UV-I 0 W/m 11,3 km/h (2 Bft)
09.11.2013 18:00 8,6 C 6,4 C 83 % 1005,4 hPa 0,0 l/m 0,00 h 0,43 h 0,0 UV-I 0 W/m 13,5 km/h (3 Bft)
09.11.2013 19:00 8,4 C 6,3 C 86 % 1003,9 hPa 0,0 l/m 0,00 h 0,80 h 0,0 UV-I 0 W/m 15,3 km/h (3 Bft)
09.11.2013 20:00 8,8 C 6,7 C 87 % 1003,2 hPa 0,2 l/m 0,00 h 1,00 h 0,0 UV-I 0 W/m 19,0 km/h (3 Bft)
09.11.2013 21:00 8,4 C 6,7 C 91 % 1002,2 hPa 0,2 l/m 0,00 h 0,53 h 0,0 UV-I 0 W/m 21,5 km/h (4 Bft)
09.11.2013 22:00 8,5 C 6,7 C 90 % 1001,9 hPa 0,2 l/m 0,00 h 0,57 h 0,0 UV-I 0 W/m 17,9 km/h (3 Bft)
09.11.2013 23:00 8,2 C 6,7 C 93 % 1001,6 hPa 0,6 l/m 0,00 h 0,70 h 0,0 UV-I 0 W/m 16,0 km/h (3 Bft)
10.11.2013 00:00 7,5 C 6,2 C 95 % 1002,0 hPa 0,8 l/m 0,00 h 0,37 h 0,0 UV-I 0 W/m 6,8 km/h (2 Bft)
10.11.2013 01:00 6,9 C 5,7 C 96 % 1002,3 hPa 0,0 l/m 0,00 h 0,00 h 0,0 UV-I 0 W/m 4,9 km/h (1 Bft)
10.11.2013 02:00 6,6 C 5,6 C 96 % 1002,4 hPa 0,0 l/m 0,00 h 0,00 h 0,0 UV-I 0 W/m 2,1 km/h (1 Bft)
10.11.2013 03:00 6,5 C 5,4 C 96 % 1002,5 hPa 0,0 l/m 0,00 h 0,00 h 0,0 UV-I 0 W/m 2,7 km/h (1 Bft)
10.11.2013 04:00 6,4 C 5,0 C 96 % 1002,6 hPa 0,0 l/m 0,00 h 0,00 h 0,0 UV-I 0 W/m 0,3 km/h (0 Bft)
10.11.2013 05:00 6,4 C 5,0 C 97 % 1002,5 hPa 0,0 l/m 0,00 h 0,07 h 0,0 UV-I 0 W/m 0,2 km/h (0 Bft)
10.11.2013 06:00 6,2 C 5,0 C 97 % 1002,4 hPa 0,0 l/m 0,00 h 0,00 h 0,0 UV-I 0 W/m 0,4 km/h (0 Bft)
10.11.2013 07:00 6,0 C 5,0 C 97 % 1002,8 hPa 0,0 l/m 0,00 h 0,00 h 0,0 UV-I 5 W/m 0,0 km/h (0 Bft)
10.11.2013 08:00 5,9 C 5,0 C 97 % 1003,6 hPa 0,0 l/m 0,00 h 0,07 h 0,0 UV-I 14 W/m 1,6 km/h (1 Bft)
10.11.2013 09:00 6,0 C 5,0 C 97 % 1004,5 hPa 0,0 l/m 0,00 h 0,23 h 0,0 UV-I 27 W/m 5,9 km/h (2 Bft)
10.11.2013 10:00 5,4 C 4,4 C 96 % 1005,9 hPa 0,4 l/m 0,07 h 0,40 h 0,0 UV-I 114 W/m 20,4 km/h (4 Bft)
10.11.2013 11:00 6,1 C 5,2 C 93 % 1006,5 hPa 0,0 l/m 0,23 h 0,03 h 0,0 UV-I 202 W/m 7,9 km/h (2 Bft)
10.11.2013 12:00 6,8 C 5,4 C 90 % 1007,9 hPa 0,0 l/m 0,63 h 0,00 h 0,0 UV-I 260 W/m 6,6 km/h (2 Bft)
10.11.2013 13:00 7,6 C 6,3 C 87 % 1009,1 hPa 0,0 l/m 0,47 h 0,00 h 0,0 UV-I 217 W/m 11,2 km/h (2 Bft)
10.11.2013 14:00 8,0 C 6,7 C 83 % 1010,5 hPa 0,0 l/m 0,23 h 0,00 h 0,0 UV-I 118 W/m 10,9 km/h (2 Bft)
10.11.2013 15:00 7,8 C 6,7 C 84 % 1012,2 hPa 0,0 l/m 0,00 h 0,00 h 0,0 UV-I 38 W/m 5,7 km/h (1 Bft)
10.11.2013 16:00 7,1 C 5,6 C 86 % 1014,0 hPa 0,0 l/m 0,00 h 0,00 h 0,0 UV-I 18 W/m 3,8 km/h (1 Bft)
10.11.2013 17:00 6,0 C 4,0 C 90 % 1015,9 hPa 1,4 l/m 0,00 h 0,47 h 0,0 UV-I 0 W/m 2,5 km/h (1 Bft)
10.11.2013 18:00 4,0 C 2,3 C 94 % 1017,5 hPa 0,0 l/m 0,00 h 0,03 h 0,0 UV-I 0 W/m 0,1 km/h (0 Bft)
10.11.2013 19:00 4,2 C 2,5 C 96 % 1018,6 hPa 0,0 l/m 0,00 h 0,00 h 0,0 UV-I 0 W/m 0,3 km/h (0 Bft)
10.11.2013 20:00 4,5 C 3,0 C 97 % 1019,9 hPa 0,0 l/m 0,00 h 0,00 h 0,0 UV-I 0 W/m 0,5 km/h (0 Bft)
10.11.2013 21:00 4,3 C 2,8 C 97 % 1021,0 hPa 0,2 l/m 0,00 h 0,00 h 0,0 UV-I 0 W/m 0,1 km/h (0 Bft)
10.11.2013 22:00 4,1 C 2,6 C 96 % 1021,7 hPa 0,0 l/m 0,00 h 0,00 h 0,0 UV-I 0 W/m 0,3 km/h (0 Bft)
10.11.2013 23:00 3,7 C 2,2 C 96 % 1022,7 hPa 0,0 l/m 0,00 h 0,00 h 0,0 UV-I 0 W/m 0,5 km/h (0 Bft)
Min-Datum _ 10.11.13 10.11.13 09.11.13 04.11.13 - - - - - 04.11.13
_ Min-Zeit 23:58 18:00 14:18 12:46 - - - - - 00:22
Minimum _ 3,6 C 2,2 C 74 % 982,8 hPa - - - - - 0,0 km/h (0 Bft)
Max-Datum _ 04.11.13 04.11.13 06.11.13 10.11.13 04.11.13 04.11.13 04.11.13 04.11.13 04.11.13 04.11.13
_ Max-Zeit 11:40 11:34 18:46 23:48 03:02 10:52 01:38 00:00 11:34 09:58
Maximum _ 14,9 C 13,3 C 99 % 1023,1 hPa 1,8 l/m 0,03 h 0,03 h 0,0 UV-I 504 W/m 48,9 km/h
S (6 Bft)
Durchschnitt _ 9,0 C 7,7 C 93 % 1002,1 hPa #35,2 l/m #7:48 h #48:30 h 0,0 UV-I 83 W/m 10,0 km/h (2 Bft)
© 2013 W. Hausmann